Time;durP1;ratioP1;P1;durP2;ratioP2;P2;SDS_P1;SDS_P2;PMS_P1;PMS_P2;Temp;Humidity;BMP_temperature;BMP_pressure;BME280_temperature;BME280_humidity;BME280_pressure;Samples;Min_cycle;Max_cycle;Signal;HPM_P1;HPM_P2
2022/02/23 00:01:31;;;;;;;12.00;3.25;;;5.40;99.90;;;;;;5027541;28;20461;-79
2022/02/23 00:03:59;;;;;;;15.30;3.72;;;5.40;99.90;;;;;;5017606;28;20411;-78
2022/02/23 00:06:25;;;;;;;17.13;3.92;;;5.30;99.90;;;;;;5033488;28;20052;-79
2022/02/23 00:08:50;;;;;;;13.63;3.67;;;5.30;99.90;;;;;;5032308;28;20053;-79
2022/02/23 00:11:16;;;;;;;11.70;3.42;;;5.40;99.90;;;;;;5042480;28;20064;-79
2022/02/23 00:13:42;;;;;;;17.25;3.25;;;5.30;99.90;;;;;;5031061;28;20061;-79
2022/02/23 00:16:08;;;;;;;13.35;2.65;;;5.30;99.90;;;;;;5019875;28;20045;-79
2022/02/23 00:18:34;;;;;;;12.82;3.95;;;5.20;99.90;;;;;;5032619;28;20049;-79
2022/02/23 00:21:00;;;;;;;13.63;3.45;;;5.20;99.90;;;;;;5016590;28;20897;-79
2022/02/23 00:23:26;;;;;;;13.25;3.38;;;5.20;99.90;;;;;;5037666;28;20065;-79
2022/02/23 00:25:52;;;;;;;10.90;4.03;;;5.20;99.90;;;;;;5021295;28;20041;-78
2022/02/23 00:28:18;;;;;;;12.88;2.90;;;5.30;99.90;;;;;;5037502;28;20140;-79
2022/02/23 00:30:43;;;;;;;12.75;3.78;;;5.20;99.90;;;;;;5020780;28;20037;-79
2022/02/23 00:33:09;;;;;;;16.02;4.25;;;5.20;99.90;;;;;;5026002;28;20439;-79
2022/02/23 00:35:35;;;;;;;19.23;4.15;;;5.20;99.90;;;;;;5034283;28;20037;-78
2022/02/23 00:38:01;;;;;;;;;;;5.20;99.90;;;;;;5018339;28;20092;-78
2022/02/23 00:40:27;;;;;;;12.52;4.13;;;5.30;99.90;;;;;;5020995;28;19932;-79
2022/02/23 00:42:57;;;;;;;13.00;3.75;;;5.50;99.90;;;;;;5020801;28;20087;-79
2022/02/23 00:45:23;;;;;;;9.82;2.78;;;5.40;99.90;;;;;;5016277;28;20053;-79
2022/02/23 00:47:49;;;;;;;12.18;3.20;;;5.20;99.90;;;;;;5044515;28;20073;-79
2022/02/23 00:50:15;;;;;;;25.58;4.57;;;4.90;99.90;;;;;;5032478;28;20084;-79
2022/02/23 00:52:41;;;;;;;9.73;3.28;;;5.20;99.90;;;;;;5025379;28;20052;-79
2022/02/23 00:55:07;;;;;;;12.02;3.70;;;5.30;99.90;;;;;;5032490;28;20507;-79
2022/02/23 00:57:33;;;;;;;;;;;5.20;99.90;;;;;;5043258;28;20038;-79
2022/02/23 00:59:59;;;;;;;8.70;3.30;;;5.20;99.90;;;;;;5032353;28;19948;-78
2022/02/23 01:02:25;;;;;;;14.93;3.65;;;5.10;99.90;;;;;;4999494;28;20391;-78
2022/02/23 01:04:51;;;;;;;13.50;3.45;;;5.30;99.90;;;;;;5017923;28;20041;-79
2022/02/23 01:07:17;;;;;;;16.98;3.03;;;5.20;99.90;;;;;;5043386;28;20044;-79
2022/02/23 01:09:43;;;;;;;10.50;2.50;;;5.10;99.90;;;;;;5019068;28;20578;-79
2022/02/23 01:12:09;;;;;;;13.85;3.85;;;5.10;99.90;;;;;;5019559;28;20037;-78
2022/02/23 01:14:36;;;;;;;17.20;3.45;;;5.10;99.90;;;;;;5043183;28;20360;-78
2022/02/23 01:17:02;;;;;;;8.10;3.10;;;5.10;99.90;;;;;;5034836;28;20045;-79
2022/02/23 01:19:28;;;;;;;8.25;2.78;;;5.10;99.90;;;;;;5014446;28;20076;-78
2022/02/23 01:21:53;;;;;;;14.48;3.58;;;5.10;99.90;;;;;;5014364;28;20390;-80
2022/02/23 01:24:19;;;;;;;10.20;3.00;;;5.20;99.90;;;;;;5036132;28;20118;-79
2022/02/23 01:26:45;;;;;;;14.93;4.10;;;5.20;99.90;;;;;;5036979;28;20505;-78
2022/02/23 01:29:11;;;;;;;16.58;4.72;;;5.20;99.90;;;;;;5031476;28;20076;-79
2022/02/23 01:31:37;;;;;;;15.32;3.08;;;5.20;99.90;;;;;;5030645;28;20041;-77
2022/02/23 01:34:03;;;;;;;17.70;3.58;;;5.20;99.90;;;;;;4993759;28;20544;-78
2022/02/23 01:36:28;;;;;;;;;;;5.20;99.90;;;;;;5015994;28;20415;-78
2022/02/23 01:38:54;;;;;;;13.10;4.00;;;5.20;99.90;;;;;;5004319;28;19928;-78
2022/02/23 01:41:20;;;;;;;8.75;3.60;;;5.20;99.90;;;;;;5003799;28;20093;-78
2022/02/23 01:43:47;;;;;;;14.15;3.35;;;5.10;99.90;;;;;;4997445;28;20068;-78
2022/02/23 01:46:14;;;;;;;11.20;3.28;;;5.10;99.90;;;;;;5030586;28;20033;-78
2022/02/23 01:48:40;;;;;;;14.30;3.55;;;5.00;99.90;;;;;;5033922;28;20108;-78
2022/02/23 01:51:06;;;;;;;12.80;3.67;;;5.00;99.90;;;;;;5041254;28;20502;-77
2022/02/23 01:53:32;;;;;;;13.93;4.43;;;4.90;99.90;;;;;;5032274;28;20049;-78
2022/02/23 01:55:58;;;;;;;12.35;3.60;;;4.90;99.90;;;;;;5038778;28;20041;-79
2022/02/23 01:58:23;;;;;;;12.00;3.20;;;4.90;99.90;;;;;;5040179;28;20124;-77
2022/02/23 02:00:49;;;;;;;13.55;3.05;;;5.10;99.90;;;;;;5025292;28;20394;-76
2022/02/23 02:03:15;;;;;;;10.63;2.53;;;5.00;99.90;;;;;;5031454;28;20175;-76
2022/02/23 02:05:41;;;;;;;9.10;2.83;;;5.50;99.90;;;;;;5042951;28;20044;-77
2022/02/23 02:08:07;;;;;;;10.63;2.88;;;5.10;99.90;;;;;;5017902;28;20037;-77
2022/02/23 02:10:32;;;;;;;9.60;3.55;;;4.90;99.90;;;;;;5020560;28;20494;-77
2022/02/23 02:12:58;;;;;;;12.70;3.35;;;4.90;99.90;;;;;;5015420;28;20403;-77
2022/02/23 02:15:24;;;;;;;10.05;2.55;;;4.90;99.90;;;;;;5030800;28;20033;-78
2022/02/23 02:17:50;;;;;;;10.60;2.97;;;4.80;99.90;;;;;;5030539;28;20033;-78
2022/02/23 02:20:16;;;;;;;10.80;3.38;;;5.40;99.90;;;;;;5024891;28;20041;-78
2022/02/23 02:22:41;;;;;;;18.20;3.60;;;4.80;99.90;;;;;;5013583;28;20099;-78
2022/02/23 02:25:07;;;;;;;8.60;3.28;;;4.80;99.90;;;;;;5029486;28;20045;-77
2022/02/23 02:27:33;;;;;;;;;;;4.90;99.90;;;;;;5020061;28;20041;-78
2022/02/23 02:30:00;;;;;;;8.05;3.13;;;4.80;99.90;;;;;;5037100;28;19924;-79
2022/02/23 02:32:26;;;;;;;16.25;4.15;;;4.80;99.90;;;;;;5035884;28;20050;-78
2022/02/23 02:34:52;;;;;;;8.23;3.40;;;4.70;99.90;;;;;;5018678;28;20042;-78
2022/02/23 02:37:18;;;;;;;13.52;4.15;;;4.70;99.90;;;;;;4997211;28;20045;-77
2022/02/23 02:39:44;;;;;;;14.52;3.05;;;4.70;99.90;;;;;;5015054;28;20044;-79
2022/02/23 02:42:10;;;;;;;14.68;3.33;;;4.80;99.90;;;;;;5049385;28;20061;-79
2022/02/23 02:44:37;;;;;;;6.90;2.80;;;4.70;99.90;;;;;;5043818;28;20115;-78
2022/02/23 02:47:03;;;;;;;12.50;3.90;;;4.90;99.90;;;;;;5032766;28;20056;-78
2022/02/23 02:49:29;;;;;;;18.33;3.70;;;4.60;99.90;;;;;;5042248;28;20052;-79
2022/02/23 02:51:55;;;;;;;;;;;4.60;99.90;;;;;;5033129;28;20380;-78
2022/02/23 02:54:21;;;;;;;22.58;3.20;;;4.60;99.90;;;;;;5040954;28;19971;-77
2022/02/23 02:56:48;;;;;;;19.40;3.88;;;4.70;99.90;;;;;;5038308;28;20049;-78
2022/02/23 02:59:14;;;;;;;13.02;3.88;;;4.70;99.90;;;;;;5029744;28;20037;-79
2022/02/23 03:01:39;;;;;;;12.23;3.97;;;4.80;99.90;;;;;;5039002;28;20434;-78
2022/02/23 03:04:07;;;;;;;9.30;3.00;;;4.70;99.90;;;;;;5030692;28;20069;-78
2022/02/23 03:06:34;;;;;;;13.40;4.10;;;4.70;99.90;;;;;;5039028;28;20041;-78
2022/02/23 03:09:00;;;;;;;7.82;2.80;;;5.00;99.90;;;;;;5045319;28;20488;-79
2022/02/23 03:11:26;;;;;;;15.50;4.10;;;4.70;99.90;;;;;;5040018;28;20120;-80
2022/02/23 03:13:52;;;;;;;12.85;3.45;;;4.70;99.90;;;;;;5046443;28;20037;-79
2022/02/23 03:16:18;;;;;;;20.30;4.75;;;4.80;99.90;;;;;;5039177;28;20479;-78
2022/02/23 03:18:44;;;;;;;11.73;4.10;;;4.80;99.90;;;;;;5035998;28;20037;-78
2022/02/23 03:21:10;;;;;;;;;;;4.80;99.90;;;;;;5039626;28;20046;-79
2022/02/23 03:23:37;;;;;;;11.50;3.53;;;4.80;99.90;;;;;;5045104;28;19928;-79
2022/02/23 03:26:03;;;;;;;10.07;2.70;;;4.80;99.90;;;;;;5019871;28;20092;-79
2022/02/23 03:28:31;;;;;;;14.25;3.83;;;4.60;99.90;;;;;;5038507;28;20080;-79
2022/02/23 03:30:57;;;;;;;9.27;2.95;;;4.70;99.90;;;;;;5019416;28;20056;-79
2022/02/23 03:33:23;;;;;;;;;;;4.70;99.90;;;;;;5042985;28;20040;-78
2022/02/23 03:35:48;;;;;;;7.75;3.20;;;5.10;99.90;;;;;;5020515;28;19945;-78
2022/02/23 03:38:14;;;;;;;16.70;3.65;;;4.80;99.90;;;;;;5041201;28;20119;-79
2022/02/23 03:40:41;;;;;;;;;;;5.40;99.90;;;;;;5044218;28;20049;-79
2022/02/23 03:43:07;;;;;;;14.63;3.47;;;4.90;99.90;;;;;;5047207;28;19927;-78
2022/02/23 03:45:33;;;;;;;;;;;4.90;99.90;;;;;;5039870;28;20454;-79
2022/02/23 03:48:00;;;;;;;8.20;3.20;;;4.90;99.90;;;;;;5035677;28;20191;-79
2022/02/23 03:50:25;;;;;;;8.63;2.60;;;4.80;99.90;;;;;;5046050;28;20045;-79
2022/02/23 03:52:51;;;;;;;7.07;2.88;;;4.90;99.90;;;;;;5043770;28;20045;-78
2022/02/23 03:55:17;;;;;;;12.05;3.75;;;4.90;99.90;;;;;;5044334;28;20080;-78
2022/02/23 03:57:43;;;;;;;11.32;3.33;;;4.90;99.90;;;;;;5037424;28;20112;-79
2022/02/23 04:00:12;;;;;;;15.45;3.28;;;4.90;99.90;;;;;;5046163;28;20511;-79
2022/02/23 04:02:38;;;;;;;10.50;2.95;;;4.80;99.90;;;;;;5038270;28;20438;-79
2022/02/23 04:05:06;;;;;;;17.38;3.90;;;4.80;99.90;;;;;;5029735;28;20077;-79
2022/02/23 04:07:33;;;;;;;12.85;3.45;;;4.60;99.90;;;;;;5035765;28;20069;-80
2022/02/23 04:09:59;;;;;;;8.93;3.50;;;4.60;99.90;;;;;;5019500;28;20084;-80
2022/02/23 04:12:24;;;;;;;14.68;3.20;;;4.50;99.90;;;;;;5020883;28;20447;-78
2022/02/23 04:14:50;;;;;;;13.05;3.80;;;4.50;99.90;;;;;;5044944;28;20128;-79
2022/02/23 04:17:16;;;;;;;12.45;4.07;;;4.50;99.90;;;;;;5034301;28;20041;-78
2022/02/23 04:19:42;;;;;;;7.68;2.28;;;4.40;99.90;;;;;;5044816;28;20065;-79
2022/02/23 04:22:07;;;;;;;8.93;3.30;;;4.40;99.90;;;;;;5043883;28;20068;-79
2022/02/23 04:24:33;;;;;;;6.65;2.75;;;4.60;99.90;;;;;;5032747;28;20049;-78
2022/02/23 04:27:00;;;;;;;18.02;3.45;;;4.40;99.90;;;;;;5036708;28;20043;-78
2022/02/23 04:29:26;;;;;;;18.45;3.55;;;4.40;99.90;;;;;;5027533;28;20052;-79
2022/02/23 04:31:52;;;;;;;20.55;3.67;;;4.50;99.90;;;;;;5038329;28;20049;-79
2022/02/23 04:34:18;;;;;;;13.38;3.25;;;4.50;99.90;;;;;;5039152;28;20040;-80
2022/02/23 04:36:44;;;;;;;13.77;3.40;;;4.50;99.90;;;;;;5038286;28;20463;-80
2022/02/23 04:39:09;;;;;;;13.57;3.70;;;4.60;99.90;;;;;;5023264;28;20056;-78
2022/02/23 04:41:35;;;;;;;13.23;3.72;;;4.50;99.90;;;;;;5019679;28;20057;-77
2022/02/23 04:44:01;;;;;;;15.10;3.53;;;4.50;99.90;;;;;;5032816;28;20057;-78
2022/02/23 04:46:27;;;;;;;5.38;3.35;;;4.40;99.90;;;;;;5031964;28;20044;-77
2022/02/23 04:48:53;;;;;;;7.57;2.90;;;4.40;99.90;;;;;;5033975;28;20124;-79
2022/02/23 04:51:23;;;;;;;7.63;2.42;;;4.40;99.90;;;;;;5025873;28;20045;-80
2022/02/23 04:53:49;;;;;;;11.63;2.97;;;4.90;99.90;;;;;;5018527;28;20037;-78
2022/02/23 04:56:15;;;;;;;13.50;3.35;;;4.20;99.90;;;;;;5038017;28;20451;-79
2022/02/23 04:58:41;;;;;;;;;;;4.10;99.90;;;;;;5032843;28;20124;-79
2022/02/23 05:01:07;;;;;;;10.60;2.50;;;4.10;99.90;;;;;;5033850;28;20743;-79
2022/02/23 05:03:32;;;;;;;16.27;2.53;;;4.10;99.90;;;;;;5031485;28;20045;-79
2022/02/23 05:06:02;;;;;;;7.65;2.88;;;4.10;99.90;;;;;;5015140;28;20390;-79
2022/02/23 05:08:27;;;;;;;12.50;3.15;;;4.20;99.90;;;;;;5027913;28;20120;-79
2022/02/23 05:10:57;;;;;;;9.48;3.25;;;4.20;99.90;;;;;;5036231;28;20132;-80
2022/02/23 05:13:25;;;;;;;9.98;2.53;;;4.10;99.90;;;;;;5031399;28;20368;-79
2022/02/23 05:15:56;;;;;;;12.35;2.90;;;4.10;99.90;;;;;;5031714;28;20056;-79
2022/02/23 05:18:23;;;;;;;9.05;3.35;;;4.00;99.90;;;;;;5035094;28;20045;-79
2022/02/23 05:20:49;;;;;;;15.50;3.75;;;4.20;99.90;;;;;;5032210;28;20045;-79
2022/02/23 05:23:16;;;;;;;8.63;2.33;;;4.10;99.90;;;;;;5031721;28;20522;-80
2022/02/23 05:25:42;;;;;;;14.25;2.45;;;4.20;99.90;;;;;;5032057;28;20094;-79
2022/02/23 05:28:07;;;;;;;9.50;3.22;;;4.20;99.90;;;;;;5033517;28;20124;-79
2022/02/23 05:30:33;;;;;;;11.57;2.42;;;4.20;99.90;;;;;;5032476;28;20492;-79
2022/02/23 05:32:59;;;;;;;16.67;3.65;;;4.20;99.90;;;;;;5035486;28;20045;-77
2022/02/23 05:35:25;;;;;;;11.00;3.25;;;4.20;99.90;;;;;;5021476;28;20037;-79
2022/02/23 05:37:50;;;;;;;8.45;2.63;;;4.20;99.90;;;;;;5041899;28;20486;-80
2022/02/23 05:40:17;;;;;;;14.77;3.70;;;4.30;99.90;;;;;;5016696;28;20132;-80
2022/02/23 05:42:43;;;;;;;9.90;2.97;;;4.30;99.90;;;;;;4995546;28;20065;-82
2022/02/23 05:45:11;;;;;;;9.85;3.30;;;4.30;99.90;;;;;;5036501;28;20052;-80
2022/02/23 05:47:36;;;;;;;10.32;2.97;;;4.20;99.90;;;;;;5030819;28;20049;-79
2022/02/23 05:50:03;;;;;;;11.25;3.42;;;4.20;99.90;;;;;;5039328;28;20042;-79
2022/02/23 05:52:29;;;;;;;14.98;3.42;;;4.20;99.90;;;;;;5039711;28;20049;-81
2022/02/23 05:54:56;;;;;;;15.63;1.95;;;4.30;99.90;;;;;;5014650;28;20053;-80
2022/02/23 05:57:21;;;;;;;8.23;3.13;;;4.30;99.90;;;;;;5021676;28;20049;-79
2022/02/23 05:59:49;;;;;;;16.10;2.97;;;4.20;99.90;;;;;;5032314;28;20045;-80
2022/02/23 06:02:15;;;;;;;12.82;3.00;;;4.20;99.90;;;;;;5036031;28;20041;-80
2022/02/23 06:04:40;;;;;;;;;;;4.10;99.90;;;;;;5016107;28;20080;-80
2022/02/23 06:07:07;;;;;;;15.95;3.40;;;4.10;99.90;;;;;;5022596;28;19948;-81
2022/02/23 06:09:38;;;;;;;10.10;3.20;;;4.10;99.90;;;;;;5017391;28;20110;-79
2022/02/23 06:12:04;;;;;;;7.85;2.58;;;4.20;99.90;;;;;;5020352;28;20502;-78
2022/02/23 06:14:31;;;;;;;;;;;4.10;99.90;;;;;;4998856;28;20084;-82
2022/02/23 06:16:57;;;;;;;;;;;4.10;99.90;;;;;;5015496;28;19967;-79
2022/02/23 06:19:24;;;;;;;13.32;3.20;;;4.10;99.90;;;;;;5030427;28;19963;-81
2022/02/23 06:21:50;;;;;;;7.18;3.00;;;4.20;99.90;;;;;;5030831;28;20045;-79
2022/02/23 06:24:16;;;;;;;14.88;3.50;;;4.20;99.90;;;;;;5033704;28;20077;-80
2022/02/23 06:26:42;;;;;;;8.80;2.35;;;4.30;99.90;;;;;;5033962;28;20045;-79
2022/02/23 06:29:07;;;;;;;;;;;4.30;99.90;;;;;;5028164;28;20103;-79
2022/02/23 06:31:33;;;;;;;15.23;3.55;;;4.80;99.90;;;;;;5029363;28;19921;-79
2022/02/23 06:33:59;;;;;;;12.20;3.38;;;4.90;99.90;;;;;;4999530;28;20049;-78
2022/02/23 06:36:24;;;;;;;12.93;3.20;;;4.30;99.90;;;;;;5024100;28;20045;-79
2022/02/23 06:38:50;;;;;;;17.95;3.30;;;4.30;99.90;;;;;;5042218;28;20056;-79
2022/02/23 06:41:19;;;;;;;15.27;4.28;;;4.40;99.90;;;;;;5039462;28;20064;-78
2022/02/23 06:43:47;;;;;;;13.15;2.97;;;4.40;99.90;;;;;;5045377;28;20052;-80
2022/02/23 06:46:13;;;;;;;12.80;3.17;;;4.40;99.90;;;;;;5048811;28;20041;-80
2022/02/23 06:48:40;;;;;;;17.65;3.35;;;4.40;99.90;;;;;;5014185;28;20053;-81
2022/02/23 06:51:15;;;;;;;9.68;2.33;;;4.30;99.90;;;;;;5033482;28;20077;-80
2022/02/23 06:53:41;;;;;;;12.43;3.05;;;4.30;99.90;;;;;;4995598;28;20052;-81
2022/02/23 06:56:06;;;;;;;10.38;2.88;;;4.30;99.90;;;;;;5015864;28;20411;-81
2022/02/23 06:58:40;;;;;;;14.38;3.13;;;4.30;99.90;;;;;;5037199;28;20113;-80
2022/02/23 07:01:06;;;;;;;11.48;3.28;;;4.30;99.90;;;;;;5033755;28;20058;-80
2022/02/23 07:03:31;;;;;;;11.45;3.10;;;4.30;99.90;;;;;;5037621;28;20034;-80
2022/02/23 07:05:57;;;;;;;9.52;2.28;;;4.30;99.90;;;;;;5033849;28;20052;-80
2022/02/23 07:08:24;;;;;;;9.43;2.38;;;4.30;99.90;;;;;;5039659;28;20504;-82
2022/02/23 07:10:50;;;;;;;15.88;3.78;;;4.30;99.90;;;;;;5017188;28;20033;-81
2022/02/23 07:13:15;;;;;;;8.10;2.78;;;4.30;99.90;;;;;;5030735;28;20120;-82
2022/02/23 07:16:10;;;;;;;14.15;3.22;;;4.30;99.90;;;;;;5043331;28;20095;-83
2022/02/23 07:18:37;;;;;;;7.90;3.08;;;4.40;99.90;;;;;;5014517;28;20049;-87
2022/02/23 07:21:06;;;;;;;12.02;3.20;;;4.60;99.90;;;;;;5048285;28;20078;-80
2022/02/23 07:23:32;;;;;;;8.93;2.67;;;4.30;99.90;;;;;;5038431;28;20137;-82
2022/02/23 07:25:58;;;;;;;16.90;2.60;;;4.40;99.90;;;;;;5023050;28;20037;-82
2022/02/23 07:28:27;;;;;;;5.93;2.42;;;4.40;99.90;;;;;;5014519;28;20061;-83
2022/02/23 07:30:53;;;;;;;10.13;3.17;;;4.40;99.90;;;;;;5011866;28;20065;-82
2022/02/23 07:33:19;;;;;;;8.80;2.03;;;4.50;99.90;;;;;;5030546;28;20026;-83
2022/02/23 07:35:47;;;;;;;2.97;1.95;;;4.60;99.90;;;;;;5005075;28;20018;-82
2022/02/23 07:38:13;;;;;;;11.70;3.45;;;4.70;99.90;;;;;;5019565;28;20034;-81
2022/02/23 07:40:39;;;;;;;12.90;2.70;;;4.60;99.90;;;;;;5019743;28;20530;-81
2022/02/23 07:43:06;;;;;;;9.00;2.80;;;4.60;99.90;;;;;;5037762;28;20052;-84
2022/02/23 07:45:36;;;;;;;12.75;2.90;;;5.40;99.90;;;;;;5008637;28;20057;-82
2022/02/23 07:48:04;;;;;;;10.05;2.97;;;4.60;99.90;;;;;;5032847;28;20124;-80
2022/02/23 07:50:31;;;;;;;7.95;2.80;;;4.50;99.90;;;;;;5007055;28;20049;-82
2022/02/23 07:52:59;;;;;;;9.52;2.92;;;4.50;99.90;;;;;;5015783;28;20099;-81
2022/02/23 07:55:26;;;;;;;11.70;2.58;;;4.70;99.90;;;;;;5011913;28;20548;-82
2022/02/23 07:57:52;;;;;;;12.82;2.85;;;3.20;99.90;;;;;;5032596;28;20111;-84
2022/02/23 08:00:21;;;;;;;8.15;3.20;;;6.00;99.90;;;;;;5018385;28;20191;-83
2022/02/23 08:02:47;;;;;;;11.05;2.45;;;4.70;99.90;;;;;;5021614;28;20048;-86
2022/02/23 08:05:12;;;;;;;;;;;4.70;99.90;;;;;;5027910;28;20037;-83
2022/02/23 08:07:39;;;;;;;10.65;2.70;;;4.80;99.90;;;;;;5022551;28;20008;-83
2022/02/23 08:10:05;;;;;;;10.27;2.53;;;4.90;99.90;;;;;;5022244;28;20127;-81
2022/02/23 08:12:32;;;;;;;8.13;2.88;;;4.90;99.90;;;;;;5001339;28;20151;-83
2022/02/23 08:19:30;;;;;;;;;;;5.00;99.90;;;;;;5016883;28;20045;-82
2022/02/23 08:20:33;;;;;;;7.47;2.28;;;5.20;99.90;;;;;;5040587;28;20647;-80
2022/02/23 08:22:59;;;;;;;17.38;3.03;;;5.30;99.90;;;;;;5026374;28;20045;-81
2022/02/23 08:25:25;;;;;;;;;;;5.30;99.90;;;;;;4981392;28;20546;-81
2022/02/23 08:27:51;;;;;;;16.02;2.83;;;6.60;99.90;;;;;;5043070;28;19916;-80
2022/02/23 08:30:17;;;;;;;;;;;5.50;99.90;;;;;;5032537;28;20045;-80
2022/02/23 08:32:42;;;;;;;7.82;2.67;;;5.60;99.90;;;;;;5030884;28;19928;-80
2022/02/23 08:35:08;;;;;;;8.43;2.38;;;5.70;99.90;;;;;;4996742;28;20103;-83
2022/02/23 08:37:34;;;;;;;10.88;2.42;;;5.80;99.90;;;;;;5029124;28;20095;-82
2022/02/23 08:40:00;;;;;;;6.93;2.92;;;5.80;99.90;;;;;;5016329;28;20045;-83
2022/02/23 08:42:26;;;;;;;9.90;2.28;;;5.90;99.90;;;;;;5039631;28;20047;-84
2022/02/23 08:44:53;;;;;;;11.32;3.10;;;5.90;99.90;;;;;;5024357;28;20604;-82
2022/02/23 08:47:49;;;;;;;9.38;3.17;;;6.10;99.90;;;;;;5035162;28;20171;-83
2022/02/23 08:50:18;;;;;;;10.50;3.38;;;5.70;99.90;;;;;;5036272;28;20049;-85
2022/02/23 08:52:56;;;;;;;13.82;3.35;;;6.20;99.90;;;;;;5018517;28;20041;-83
2022/02/23 08:55:31;;;;;;;14.65;2.80;;;6.30;99.90;;;;;;5044157;28;20175;-81
2022/02/23 08:57:58;;;;;;;11.40;2.33;;;6.30;99.90;;;;;;5017322;28;20530;-83
2022/02/23 09:00:36;;;;;;;4.75;2.20;;;6.40;99.90;;;;;;5016996;28;20108;-84
2022/02/23 09:03:05;;;;;;;10.07;3.13;;;6.50;99.90;;;;;;5033963;28;20045;-84
2022/02/23 09:05:31;;;;;;;8.27;3.70;;;6.50;99.90;;;;;;5034474;28;20070;-83
2022/02/23 09:07:58;;;;;;;10.38;2.67;;;6.60;99.90;;;;;;5034355;28;20376;-84
2022/02/23 09:10:25;;;;;;;6.70;2.20;;;6.70;99.90;;;;;;5018617;28;20124;-81
2022/02/23 09:12:52;;;;;;;12.25;3.45;;;6.70;99.90;;;;;;5019910;28;20060;-85
2022/02/23 09:15:18;;;;;;;11.73;3.17;;;6.80;99.90;;;;;;5020493;28;20037;-82
2022/02/23 09:17:47;;;;;;;9.27;2.30;;;6.80;99.90;;;;;;5015950;28;20116;-82
2022/02/23 09:20:31;;;;;;;15.98;2.90;;;6.90;99.90;;;;;;5018731;28;20045;-81
2022/02/23 09:22:58;;;;;;;13.75;2.80;;;6.90;99.90;;;;;;5047773;28;20537;-81
2022/02/23 09:25:24;;;;;;;9.73;2.78;;;7.00;99.90;;;;;;4988020;28;20057;-86
2022/02/23 09:27:50;;;;;;;15.13;3.83;;;7.10;99.90;;;;;;5019693;28;20041;-83
2022/02/23 09:30:16;;;;;;;11.20;2.78;;;7.10;99.90;;;;;;5031904;28;20047;-83
2022/02/23 09:32:49;;;;;;;12.52;2.97;;;7.20;99.90;;;;;;5019260;28;20037;-81
2022/02/23 09:35:17;;;;;;;6.65;2.70;;;7.20;99.90;;;;;;5034587;28;20052;-79
2022/02/23 09:37:44;;;;;;;11.93;3.38;;;7.30;99.90;;;;;;5016772;28;20044;-82
2022/02/23 09:40:10;;;;;;;12.50;3.70;;;7.30;99.90;;;;;;5032974;28;20455;-82
2022/02/23 09:42:36;;;;;;;7.25;2.38;;;7.40;99.90;;;;;;5045263;28;20088;-85
2022/02/23 09:45:06;;;;;;;7.70;3.35;;;7.50;99.90;;;;;;5013354;28;20060;-80
2022/02/23 09:47:34;;;;;;;9.30;2.60;;;7.50;99.90;;;;;;5013379;28;20041;-80
2022/02/23 09:50:21;;;;;;;5.07;2.15;;;7.60;99.90;;;;;;5011279;28;20037;-84
2022/02/23 09:52:57;;;;;;;4.80;2.40;;;7.60;99.90;;;;;;5017173;28;20124;-80
2022/02/23 09:55:24;;;;;;;9.13;2.85;;;7.70;99.90;;;;;;5037843;28;20485;-79
2022/02/23 09:57:50;;;;;;;10.23;2.92;;;9.30;99.90;;;;;;5014962;28;20132;-77
2022/02/23 10:00:16;;;;;;;10.25;3.50;;;7.70;99.90;;;;;;5032174;28;20049;-82
2022/02/23 10:02:42;;;;;;;;;;;7.70;99.90;;;;;;5035814;28;20046;-83
2022/02/23 10:05:10;;;;;;;11.80;2.42;;;6.80;99.90;;;;;;5019426;28;19966;-82
2022/02/23 10:07:42;;;;;;;4.47;2.17;;;7.30;99.90;;;;;;5036426;28;20033;-85
2022/02/23 10:10:13;;;;;;;12.48;2.60;;;7.80;99.90;;;;;;5034648;28;20037;-83
2022/02/23 10:12:53;;;;;;;8.50;2.55;;;7.40;99.90;;;;;;5034022;28;20045;-81
2022/02/23 10:15:20;;;;;;;5.95;2.55;;;8.00;99.90;;;;;;5015997;28;20556;-88
2022/02/23 10:17:50;;;;;;;12.40;3.10;;;7.90;99.90;;;;;;5031431;28;20047;-83
2022/02/23 10:20:28;;;;;;;10.57;3.50;;;6.70;99.90;;;;;;5021662;28;20041;-82
2022/02/23 10:23:06;;;;;;;9.38;2.30;;;8.10;99.90;;;;;;5007661;28;20076;-82
2022/02/23 10:25:38;;;;;;;7.15;2.88;;;8.20;99.90;;;;;;5028065;28;20427;-81
2022/02/23 10:28:20;;;;;;;6.03;2.50;;;8.30;99.90;;;;;;5019291;28;20045;-80
2022/02/23 10:30:55;;;;;;;10.00;2.88;;;8.30;99.90;;;;;;5033823;28;20060;-80
2022/02/23 10:33:30;;;;;;;6.38;1.85;;;8.40;99.90;;;;;;5028975;28;20108;-77
2022/02/23 10:36:02;;;;;;;8.75;2.63;;;8.40;99.90;;;;;;5012194;28;20049;-82
2022/02/23 10:38:37;;;;;;;13.85;2.60;;;8.50;99.90;;;;;;5014592;28;20045;-78
2022/02/23 10:41:06;;;;;;;7.95;2.38;;;8.60;99.90;;;;;;5019297;28;20080;-78
2022/02/23 10:43:34;;;;;;;6.57;2.10;;;8.60;99.90;;;;;;5031247;28;20061;-80
2022/02/23 10:46:02;;;;;;;9.43;2.92;;;8.60;99.90;;;;;;5020259;28;20787;-83
2022/02/23 10:48:41;;;;;;;6.90;2.90;;;8.80;99.90;;;;;;5049752;28;20030;-83
2022/02/23 10:51:18;;;;;;;6.55;3.05;;;8.80;99.90;;;;;;5042159;28;20060;-85
2022/02/23 10:53:46;;;;;;;7.85;2.53;;;8.80;99.90;;;;;;5042037;28;20049;-79
2022/02/23 10:56:44;;;;;;;6.60;2.00;;;9.00;99.90;;;;;;5013358;28;20030;-81
2022/02/23 10:59:19;;;;;;;5.88;1.60;;;8.90;99.90;;;;;;5028408;28;20128;-81
2022/02/23 11:01:49;;;;;;;7.13;2.28;;;9.80;99.90;;;;;;5020630;28;20088;-81
2022/02/23 11:04:28;;;;;;;6.43;2.33;;;9.00;99.90;;;;;;5027941;28;20124;-81
2022/02/23 11:07:02;;;;;;;6.07;2.33;;;9.30;99.90;;;;;;5028788;28;20037;-82
2022/02/23 11:09:37;;;;;;;7.05;1.92;;;9.20;99.90;;;;;;5013708;28;20518;-83
2022/02/23 11:12:15;;;;;;;6.85;2.13;;;8.70;99.90;;;;;;5005030;28;20443;-86
2022/02/23 11:14:42;;;;;;;6.18;2.17;;;9.30;99.90;;;;;;5046761;28;20079;-81
2022/02/23 11:17:08;;;;;;;5.90;2.05;;;9.30;99.90;;;;;;5017133;28;20037;-81
2022/02/23 11:19:35;;;;;;;;;;;9.30;99.90;;;;;;5016917;28;20045;-80
2022/02/23 11:22:04;;;;;;;4.70;1.95;;;9.40;99.90;;;;;;5034502;28;19917;-82
2022/02/23 11:24:30;;;;;;;6.88;2.38;;;9.60;99.90;;;;;;5034392;28;20053;-82
2022/02/23 11:27:00;;;;;;;8.90;2.13;;;9.30;99.90;;;;;;5040124;28;20045;-80
2022/02/23 11:29:36;;;;;;;4.72;1.65;;;9.30;99.90;;;;;;5039484;28;20129;-78
2022/02/23 11:32:04;;;;;;;7.18;2.20;;;9.40;99.90;;;;;;5012568;28;20077;-82
2022/02/23 11:34:30;;;;;;;4.32;2.42;;;9.50;99.90;;;;;;5030947;28;20111;-83
2022/02/23 11:36:56;;;;;;;5.07;1.85;;;9.50;99.90;;;;;;5006117;28;20468;-83
2022/02/23 11:39:27;;;;;;;4.43;2.00;;;9.50;99.90;;;;;;5016705;28;20094;-80
2022/02/23 11:41:58;;;;;;;6.40;2.30;;;9.60;99.90;;;;;;5029260;28;20050;-81
2022/02/23 11:44:34;;;;;;;5.57;1.67;;;9.70;99.90;;;;;;5011863;28;20475;-83
2022/02/23 11:47:26;;;;;;;8.32;2.00;;;9.80;99.90;;;;;;5032615;28;20084;-83
2022/02/23 11:49:57;;;;;;;6.43;2.33;;;9.70;99.90;;;;;;5015103;28;20550;-82
2022/02/23 11:52:29;;;;;;;5.95;2.10;;;9.70;99.90;;;;;;5016704;28;20511;-81
2022/02/23 11:55:14;;;;;;;6.47;1.23;;;9.70;99.90;;;;;;5027532;28;20573;-82
2022/02/23 11:57:52;;;;;;;7.78;1.95;;;9.60;99.90;;;;;;5024309;28;20069;-81
2022/02/23 12:00:41;;;;;;;5.93;2.00;;;9.70;99.90;;;;;;5034780;28;20128;-81
2022/02/23 12:03:09;;;;;;;8.32;1.90;;;9.90;99.90;;;;;;5023552;28;20048;-81
2022/02/23 12:05:57;;;;;;;5.70;2.53;;;9.90;99.90;;;;;;5018694;28;20041;-81
2022/02/23 12:08:31;;;;;;;;;;;9.90;99.90;;;;;;5016951;28;20045;-80
2022/02/23 12:11:15;;;;;;;6.95;1.98;;;9.80;99.90;;;;;;5035664;28;20682;-83
2022/02/23 12:13:44;;;;;;;6.30;2.15;;;9.70;99.90;;;;;;5017519;28;20076;-83
2022/02/23 12:16:24;;;;;;;8.80;2.70;;;9.80;99.90;;;;;;5018639;28;20053;-81
2022/02/23 12:18:52;;;;;;;7.50;2.30;;;9.70;99.90;;;;;;5025683;28;20495;-81
2022/02/23 12:21:18;;;;;;;7.00;1.95;;;9.80;99.90;;;;;;5029000;28;20034;-82
2022/02/23 12:23:45;;;;;;;4.18;1.92;;;9.80;99.90;;;;;;5051697;28;20041;-81
2022/02/23 12:26:33;;;;;;;7.32;2.65;;;9.90;99.90;;;;;;5023174;28;20041;-81
2022/02/23 12:29:00;;;;;;;;;;;9.90;99.90;;;;;;5025122;28;20041;-83
2022/02/23 12:31:33;;;;;;;6.85;2.10;;;10.00;99.90;;;;;;5012300;28;19943;-80
2022/02/23 12:34:07;;;;;;;8.45;2.58;;;10.10;99.90;;;;;;5025820;28;20537;-84
2022/02/23 12:36:50;;;;;;;6.00;2.28;;;10.20;99.90;;;;;;5030640;28;20048;-79
2022/02/23 12:39:19;;;;;;;6.70;2.28;;;10.10;99.90;;;;;;5018799;28;20037;-82
2022/02/23 12:42:07;;;;;;;10.73;2.80;;;10.00;99.90;;;;;;5031166;28;20049;-83
2022/02/23 12:44:37;;;;;;;5.95;2.35;;;10.10;99.90;;;;;;5017833;28;20087;-81
2022/02/23 12:47:06;;;;;;;7.45;2.25;;;10.10;99.90;;;;;;5005689;28;20056;-80
2022/02/23 12:49:38;;;;;;;5.57;1.75;;;10.10;99.90;;;;;;5031933;28;20040;-80
2022/02/23 12:52:09;;;;;;;9.52;2.15;;;10.20;99.90;;;;;;5029171;28;20466;-82
2022/02/23 12:54:35;;;;;;;6.45;1.80;;;11.70;99.90;;;;;;5013867;28;20069;-81
2022/02/23 12:57:03;;;;;;;7.10;2.40;;;10.20;99.90;;;;;;5034445;28;20049;-84
2022/02/23 12:59:30;;;;;;;6.72;2.40;;;10.20;99.90;;;;;;5022436;28;20081;-80
2022/02/23 13:02:02;;;;;;;4.53;2.00;;;10.10;99.90;;;;;;5011926;28;20471;-81
2022/02/23 13:04:34;;;;;;;5.05;1.73;;;10.10;99.90;;;;;;5029915;28;20045;-83
2022/02/23 13:07:02;;;;;;;4.45;1.67;;;10.20;99.90;;;;;;5014929;28;20806;-84